Time;durP1;ratioP1;P1;durP2;ratioP2;P2;SDS_P1;SDS_P2;PMS_P1;PMS_P2;Temp;Humidity;BMP_temperature;BMP_pressure;BME280_temperature;BME280_humidity;BME280_pressure;Samples;Min_cycle;Max_cycle;Signal;HPM_P1;HPM_P2
2022/06/11 00:00:53;;;;;;;7.18;2.08;;;;;;;;;;5055436;28;20032;-63
2022/06/11 00:03:20;;;;;;;14.90;2.40;;;;;;;;;;5055845;28;20075;-63
2022/06/11 00:05:46;;;;;;;10.38;2.38;;;;;;;;;;5056284;28;20060;-63
2022/06/11 00:08:12;;;;;;;9.05;2.92;;;;;;;;;;5055661;28;20108;-63
2022/06/11 00:10:39;;;;;;;7.55;1.45;;;;;;;;;;5056141;28;20033;-63
2022/06/11 00:13:05;;;;;;;6.25;2.40;;;;;;;;;;5055004;28;20037;-63
2022/06/11 00:15:32;;;;;;;10.05;2.38;;;;;;;;;;5055736;28;20047;-63
2022/06/11 00:17:59;;;;;;;12.05;2.47;;;;;;;;;;5062710;28;20392;-63
2022/06/11 00:20:25;;;;;;;13.93;2.35;;;;;;;;;;5075450;28;20036;-63
2022/06/11 00:22:52;;;;;;;9.65;2.90;;;;;;;;;;5075395;28;20033;-63
2022/06/11 00:25:19;;;;;;;11.48;2.55;;;;;;;;;;5075535;28;20032;-63
2022/06/11 00:27:45;;;;;;;6.30;2.05;;;;;;;;;;5074988;28;20028;-63
2022/06/11 00:30:12;;;;;;;8.98;2.63;;;;;;;;;;5073255;28;20033;-63
2022/06/11 00:32:39;;;;;;;7.43;1.88;;;;;;;;;;5055388;28;20096;-63
2022/06/11 00:35:06;;;;;;;12.43;2.50;;;;;;;;;;5053549;28;20409;-63
2022/06/11 00:37:32;;;;;;;17.33;2.60;;;;;;;;;;5055172;28;20119;-63
2022/06/11 00:39:59;;;;;;;10.55;2.95;;;;;;;;;;5063676;28;20362;-63
2022/06/11 00:42:26;;;;;;;7.55;2.20;;;;;;;;;;5073399;28;20488;-63
2022/06/11 00:45:12;;;;;;;13.18;2.45;;;;;;;;;;5074999;28;20032;-63
2022/06/11 00:47:38;;;;;;;8.18;1.90;;;;;;;;;;5075042;28;20033;-63
2022/06/11 00:50:14;;;;;;;6.72;2.17;;;;;;;;;;5074831;28;20028;-63
2022/06/11 00:52:44;;;;;;;6.53;2.22;;;;;;;;;;5074820;28;20024;-63
2022/06/11 00:55:13;;;;;;;7.30;2.22;;;;;;;;;;5064895;28;20538;-63
2022/06/11 00:58:03;;;;;;;12.10;2.60;;;;;;;;;;5054469;28;20041;-63
2022/06/11 01:00:38;;;;;;;8.93;2.10;;;;;;;;;;5063427;28;20044;-63
2022/06/11 01:03:05;;;;;;;5.75;2.70;;;;;;;;;;5054612;28;20029;-63
2022/06/11 01:05:32;;;;;;;12.80;2.28;;;;;;;;;;5059751;28;20024;-63
2022/06/11 01:08:10;;;;;;;8.25;2.15;;;;;;;;;;5074691;28;20035;-63
2022/06/11 01:10:55;;;;;;;8.23;2.53;;;;;;;;;;5059684;28;20485;-63
2022/06/11 01:13:44;;;;;;;5.25;1.90;;;;;;;;;;5054586;28;20041;-63
2022/06/11 01:16:14;;;;;;;10.02;1.83;;;;;;;;;;5054368;28;20052;-63
2022/06/11 01:18:52;;;;;;;11.43;2.88;;;;;;;;;;5073701;28;20032;-63
2022/06/11 01:21:25;;;;;;;10.82;2.38;;;;;;;;;;5074156;28;20456;-63
2022/06/11 01:24:03;;;;;;;10.65;1.98;;;;;;;;;;5073349;28;20032;-63
2022/06/11 01:26:41;;;;;;;6.03;1.75;;;;;;;;;;5073526;28;20029;-63
2022/06/11 01:29:26;;;;;;;9.55;1.83;;;;;;;;;;5072899;28;20029;-63
2022/06/11 01:31:57;;;;;;;7.20;1.77;;;;;;;;;;5074172;28;20467;-63
2022/06/11 01:34:34;;;;;;;8.07;2.03;;;;;;;;;;5074025;28;20047;-63
2022/06/11 01:37:04;;;;;;;5.55;2.08;;;;;;;;;;5074089;28;20064;-62
2022/06/11 01:39:33;;;;;;;8.80;1.92;;;;;;;;;;5073629;28;20051;-63
2022/06/11 01:41:59;;;;;;;9.77;2.00;;;;;;;;;;5065071;28;20021;-63
2022/06/11 01:44:28;;;;;;;8.15;2.40;;;;;;;;;;5053787;28;20537;-63
2022/06/11 01:46:55;;;;;;;5.45;1.58;;;;;;;;;;5053794;28;20057;-63
2022/06/11 01:49:21;;;;;;;7.22;1.83;;;;;;;;;;5053787;28;20029;-63
2022/06/11 01:51:53;;;;;;;7.85;1.90;;;;;;;;;;5053870;28;20037;-63
2022/06/11 01:54:37;;;;;;;7.28;1.60;;;;;;;;;;5053116;28;20083;-63
2022/06/11 01:57:05;;;;;;;4.35;1.55;;;;;;;;;;5053424;28;20116;-63
2022/06/11 01:59:41;;;;;;;11.10;2.30;;;;;;;;;;5053768;28;20068;-63
2022/06/11 02:02:19;;;;;;;4.20;1.65;;;;;;;;;;5055206;28;20028;-63
2022/06/11 02:04:54;;;;;;;4.93;1.70;;;;;;;;;;5056160;28;20035;-62
2022/06/11 02:07:23;;;;;;;5.88;1.98;;;;;;;;;;5071519;28;20032;-62
2022/06/11 02:09:52;;;;;;;4.70;1.77;;;;;;;;;;5055364;28;20028;-62
2022/06/11 02:12:37;;;;;;;6.95;1.75;;;;;;;;;;5062998;28;20032;-62
2022/06/11 02:15:06;;;;;;;8.07;2.30;;;;;;;;;;5057022;28;20032;-62
2022/06/11 02:17:35;;;;;;;7.25;1.92;;;;;;;;;;5053138;28;20503;-62
2022/06/11 02:20:03;;;;;;;7.15;2.28;;;;;;;;;;5053688;28;20036;-62
2022/06/11 02:22:35;;;;;;;5.97;1.60;;;;;;;;;;5062836;28;20115;-62
2022/06/11 02:25:21;;;;;;;5.03;2.08;;;;;;;;;;5061412;28;20025;-62
2022/06/11 02:27:50;;;;;;;6.32;1.70;;;;;;;;;;5052503;28;20044;-62
2022/06/11 02:30:18;;;;;;;7.38;1.85;;;;;;;;;;5052036;28;20025;-62
2022/06/11 02:32:44;;;;;;;5.68;1.90;;;;;;;;;;5074433;28;20055;-62
2022/06/11 02:35:12;;;;;;;6.88;1.60;;;;;;;;;;5073532;28;20033;-62
2022/06/11 02:37:40;;;;;;;4.18;1.80;;;;;;;;;;5072535;28;20028;-62
2022/06/11 02:40:13;;;;;;;10.18;2.25;;;;;;;;;;5065138;28;20022;-63
2022/06/11 02:42:39;;;;;;;6.47;1.90;;;;;;;;;;5057818;28;20029;-62
2022/06/11 02:45:06;;;;;;;9.23;2.05;;;;;;;;;;5063978;28;20067;-62
2022/06/11 02:47:32;;;;;;;11.93;2.35;;;;;;;;;;5061005;28;20472;-62
2022/06/11 02:49:59;;;;;;;5.65;2.20;;;;;;;;;;5060643;28;20051;-62
2022/06/11 02:52:25;;;;;;;3.50;1.90;;;;;;;;;;5061615;28;20503;-62
2022/06/11 02:54:52;;;;;;;9.57;2.25;;;;;;;;;;5063699;28;20077;-62
2022/06/11 02:57:23;;;;;;;5.72;1.65;;;;;;;;;;5062405;28;20048;-62
2022/06/11 02:59:50;;;;;;;8.25;1.95;;;;;;;;;;5057485;28;20043;-62
2022/06/11 03:02:16;;;;;;;14.45;2.25;;;;;;;;;;5060283;28;20122;-63
2022/06/11 03:04:43;;;;;;;6.95;2.13;;;;;;;;;;5070310;28;20020;-62
2022/06/11 03:07:09;;;;;;;12.40;2.85;;;;;;;;;;5062583;28;20028;-62
2022/06/11 03:09:36;;;;;;;8.63;1.90;;;;;;;;;;5061500;28;20028;-62
2022/06/11 03:12:03;;;;;;;6.70;2.00;;;;;;;;;;5063725;28;20037;-62
2022/06/11 03:14:29;;;;;;;10.68;2.85;;;;;;;;;;5060222;28;20043;-62
2022/06/11 03:16:55;;;;;;;8.23;2.80;;;;;;;;;;5057518;28;20052;-62
2022/06/11 03:19:22;;;;;;;10.43;2.25;;;;;;;;;;5061848;28;20090;-62
2022/06/11 03:21:49;;;;;;;8.15;2.00;;;;;;;;;;5064380;28;20045;-62
2022/06/11 03:24:16;;;;;;;11.60;2.70;;;;;;;;;;5055241;28;20024;-62
2022/06/11 03:26:42;;;;;;;5.82;2.30;;;;;;;;;;5055488;28;20093;-62
2022/06/11 03:29:08;;;;;;;18.70;3.08;;;;;;;;;;5069781;28;20082;-63
2022/06/11 03:31:34;;;;;;;4.60;1.67;;;;;;;;;;5060714;28;20032;-63
2022/06/11 03:34:01;;;;;;;8.80;1.90;;;;;;;;;;5065907;28;20033;-62
2022/06/11 03:36:27;;;;;;;14.85;2.38;;;;;;;;;;5053488;28;20045;-62
2022/06/11 03:38:53;;;;;;;11.10;2.47;;;;;;;;;;5052073;28;20025;-62
2022/06/11 03:41:21;;;;;;;7.13;2.55;;;;;;;;;;5053805;28;20468;-62
2022/06/11 03:43:49;;;;;;;7.55;2.15;;;;;;;;;;5052069;28;20091;-62
2022/06/11 03:46:15;;;;;;;15.75;2.35;;;;;;;;;;5051940;28;20025;-62
2022/06/11 03:48:41;;;;;;;11.57;2.20;;;;;;;;;;5055768;28;20073;-62
2022/06/11 03:51:08;;;;;;;12.70;2.70;;;;;;;;;;5065223;28;20029;-62
2022/06/11 03:53:35;;;;;;;10.77;2.30;;;;;;;;;;5061226;28;20115;-63
2022/06/11 03:56:02;;;;;;;9.60;2.17;;;;;;;;;;5070884;28;20040;-62
2022/06/11 03:58:28;;;;;;;13.20;2.75;;;;;;;;;;5071446;28;20072;-62
2022/06/11 04:03:40;;;;;;;8.77;1.85;;;;;;;;;;5049564;28;20455;-62
2022/06/11 04:06:07;;;;;;;5.57;2.10;;;;;;;;;;5059703;28;20119;-62
2022/06/11 04:08:33;;;;;;;12.73;2.05;;;;;;;;;;5056082;28;20545;-62
2022/06/11 04:11:00;;;;;;;9.02;2.50;;;;;;;;;;5058037;28;20037;-62
2022/06/11 04:13:27;;;;;;;10.40;2.28;;;;;;;;;;5059511;28;20025;-62
2022/06/11 04:15:54;;;;;;;8.10;2.05;;;;;;;;;;5050972;28;20088;-62
2022/06/11 04:18:27;;;;;;;14.48;2.40;;;;;;;;;;5052744;28;20037;-62
2022/06/11 04:20:53;;;;;;;10.80;2.55;;;;;;;;;;5050036;28;20044;-63
2022/06/11 04:23:19;;;;;;;10.15;2.17;;;;;;;;;;5058040;28;20083;-63
2022/06/11 04:25:45;;;;;;;10.25;2.42;;;;;;;;;;5069277;28;20039;-63
2022/06/11 04:28:13;;;;;;;12.73;2.40;;;;;;;;;;5068237;28;20061;-63
2022/06/11 04:30:39;;;;;;;6.63;1.70;;;;;;;;;;5064472;28;20035;-63
2022/06/11 04:33:05;;;;;;;8.13;2.40;;;;;;;;;;5066161;28;20514;-63
2022/06/11 04:35:32;;;;;;;9.40;2.38;;;;;;;;;;5061094;28;20033;-63
2022/06/11 04:37:58;;;;;;;7.70;2.30;;;;;;;;;;5065603;28;20043;-63
2022/06/11 04:40:25;;;;;;;10.00;2.20;;;;;;;;;;5056440;28;20085;-63
2022/06/11 04:42:51;;;;;;;11.55;2.10;;;;;;;;;;5055704;28;20709;-63
2022/06/11 04:45:18;;;;;;;12.45;1.88;;;;;;;;;;5053901;28;20103;-63
2022/06/11 04:47:45;;;;;;;12.73;2.10;;;;;;;;;;5061193;28;20043;-63
2022/06/11 04:50:13;;;;;;;14.95;2.58;;;;;;;;;;5061177;28;20025;-63
2022/06/11 04:52:39;;;;;;;14.40;2.28;;;;;;;;;;5063374;28;20021;-63
2022/06/11 04:55:05;;;;;;;6.07;1.75;;;;;;;;;;5066165;28;20025;-63
2022/06/11 04:57:32;;;;;;;11.63;2.55;;;;;;;;;;5062604;28;20047;-63
2022/06/11 04:59:58;;;;;;;8.40;1.80;;;;;;;;;;5062251;28;20047;-63
2022/06/11 05:02:24;;;;;;;9.00;1.90;;;;;;;;;;5063487;28;20033;-63
2022/06/11 05:04:50;;;;;;;16.20;2.50;;;;;;;;;;5060847;28;20048;-63
2022/06/11 05:07:16;;;;;;;9.32;2.55;;;;;;;;;;5070184;28;20134;-63
2022/06/11 05:09:43;;;;;;;7.40;1.75;;;;;;;;;;5070900;28;20453;-63
2022/06/11 05:12:10;;;;;;;9.93;2.70;;;;;;;;;;5055528;28;20558;-63
2022/06/11 05:14:36;;;;;;;5.53;1.98;;;;;;;;;;5063889;28;20096;-63
2022/06/11 05:17:02;;;;;;;10.65;2.55;;;;;;;;;;5062063;28;20040;-63
2022/06/11 05:19:28;;;;;;;6.57;2.20;;;;;;;;;;5061931;28;20032;-63
2022/06/11 05:21:55;;;;;;;10.48;2.35;;;;;;;;;;5060915;28;20029;-63
2022/06/11 05:24:21;;;;;;;13.07;1.90;;;;;;;;;;5060415;28;20024;-63
2022/06/11 05:26:52;;;;;;;11.77;2.15;;;;;;;;;;5073026;28;20029;-63
2022/06/11 05:29:24;;;;;;;12.68;2.22;;;;;;;;;;5066020;28;20024;-63
2022/06/11 05:31:50;;;;;;;21.33;3.80;;;;;;;;;;5058129;28;20408;-63
2022/06/11 05:34:17;;;;;;;14.80;2.50;;;;;;;;;;5062919;28;20104;-63
2022/06/11 05:36:43;;;;;;;8.60;2.28;;;;;;;;;;5056665;28;20059;-63
2022/06/11 05:39:09;;;;;;;10.80;2.35;;;;;;;;;;5062662;28;20028;-63
2022/06/11 05:41:36;;;;;;;13.10;2.47;;;;;;;;;;5058307;28;20091;-63
2022/06/11 05:44:02;;;;;;;14.50;3.72;;;;;;;;;;5059806;28;20515;-63
2022/06/11 05:46:28;;;;;;;10.48;2.83;;;;;;;;;;5059829;28;20025;-63
2022/06/11 05:48:59;;;;;;;14.77;2.90;;;;;;;;;;5060397;28;20029;-63
2022/06/11 05:51:32;;;;;;;12.48;2.72;;;;;;;;;;5059377;28;20036;-63
2022/06/11 05:54:01;;;;;;;15.05;3.13;;;;;;;;;;5061076;28;20130;-63
2022/06/11 05:56:28;;;;;;;10.85;2.67;;;;;;;;;;5056160;28;20051;-63
2022/06/11 05:58:59;;;;;;;19.08;3.00;;;;;;;;;;5061116;28;20067;-63
2022/06/11 06:01:28;;;;;;;14.32;2.95;;;;;;;;;;5057708;28;20040;-63
2022/06/11 06:03:54;;;;;;;16.20;3.22;;;;;;;;;;5057869;28;20404;-63
2022/06/11 06:06:20;;;;;;;14.90;3.30;;;;;;;;;;5057859;28;20071;-63
2022/06/11 06:08:47;;;;;;;12.98;2.60;;;;;;;;;;5061329;28;20031;-63
2022/06/11 06:11:13;;;;;;;14.75;2.72;;;;;;;;;;5059395;28;20033;-63
2022/06/11 06:13:48;;;;;;;21.15;3.38;;;;;;;;;;5061223;28;20488;-63
2022/06/11 06:16:22;;;;;;;25.33;4.47;;;;;;;;;;5053375;28;20028;-63
2022/06/11 06:18:49;;;;;;;21.70;3.78;;;;;;;;;;5060371;28;20036;-63
2022/06/11 06:21:16;;;;;;;23.25;3.88;;;;;;;;;;5058498;28;20609;-63
2022/06/11 06:23:42;;;;;;;16.98;3.55;;;;;;;;;;5061066;28;20056;-63
2022/06/11 06:26:08;;;;;;;14.13;3.80;;;;;;;;;;5058589;28;20020;-63
2022/06/11 06:28:34;;;;;;;23.52;3.97;;;;;;;;;;5059070;28;20541;-63
2022/06/11 06:31:02;;;;;;;17.13;3.70;;;;;;;;;;5057395;28;20033;-63
2022/06/11 06:33:30;;;;;;;24.02;4.38;;;;;;;;;;5052753;28;20021;-63
2022/06/11 06:35:56;;;;;;;17.60;4.28;;;;;;;;;;5056423;28;20480;-63
2022/06/11 06:38:22;;;;;;;16.77;3.78;;;;;;;;;;5057239;28;20041;-63
2022/06/11 06:40:49;;;;;;;16.70;4.35;;;;;;;;;;5059388;28;20024;-63
2022/06/11 06:43:15;;;;;;;17.83;3.80;;;;;;;;;;5056452;28;20112;-63
2022/06/11 06:45:41;;;;;;;22.42;4.63;;;;;;;;;;5055377;28;20021;-63
2022/06/11 06:48:07;;;;;;;29.30;4.18;;;;;;;;;;5062122;28;20027;-63
2022/06/11 06:50:33;;;;;;;18.52;3.50;;;;;;;;;;5058424;28;20029;-63
2022/06/11 06:53:00;;;;;;;18.23;4.28;;;;;;;;;;5054702;28;20388;-63
2022/06/11 06:55:26;;;;;;;20.27;4.15;;;;;;;;;;5059257;28;20056;-63
2022/06/11 06:57:52;;;;;;;18.08;3.78;;;;;;;;;;5056629;28;20124;-63
2022/06/11 07:00:18;;;;;;;17.45;3.58;;;;;;;;;;5055802;28;20037;-63
2022/06/11 07:02:45;;;;;;;22.88;3.80;;;;;;;;;;5056635;28;20040;-63
2022/06/11 07:05:12;;;;;;;16.70;3.42;;;;;;;;;;5060608;28;20028;-63
2022/06/11 07:07:38;;;;;;;22.38;4.43;;;;;;;;;;5055662;28;20103;-63
2022/06/11 07:10:05;;;;;;;31.45;4.88;;;;;;;;;;5055558;28;20025;-63
2022/06/11 07:12:31;;;;;;;20.85;4.07;;;;;;;;;;5060028;28;20029;-63
2022/06/11 07:14:57;;;;;;;19.45;3.47;;;;;;;;;;5057489;28;20035;-63
2022/06/11 07:17:23;;;;;;;18.65;3.85;;;;;;;;;;5056197;28;20021;-63
2022/06/11 07:19:54;;;;;;;22.77;4.07;;;;;;;;;;5058930;28;20504;-65
2022/06/11 07:22:23;;;;;;;23.23;5.18;;;;;;;;;;5057964;28;20025;-63
2022/06/11 07:24:49;;;;;;;29.83;4.03;;;;;;;;;;5055163;28;20036;-63
2022/06/11 07:27:20;;;;;;;19.67;3.85;;;;;;;;;;5066851;28;20028;-63
2022/06/11 07:29:50;;;;;;;27.20;4.78;;;;;;;;;;5052350;28;20539;-63
2022/06/11 07:32:17;;;;;;;22.88;4.32;;;;;;;;;;5056704;28;20448;-63
2022/06/11 07:34:43;;;;;;;18.95;4.22;;;;;;;;;;5059865;28;20037;-64
2022/06/11 07:37:10;;;;;;;26.75;4.50;;;;;;;;;;5053934;28;20059;-64
2022/06/11 07:39:36;;;;;;;17.80;3.53;;;;;;;;;;5066314;28;20032;-73
2022/06/11 07:42:03;;;;;;;18.85;4.07;;;;;;;;;;5052456;28;20025;-63
2022/06/11 07:44:29;;;;;;;24.45;5.13;;;;;;;;;;5058986;28;20037;-63
2022/06/11 07:46:55;;;;;;;22.60;3.70;;;;;;;;;;5060430;28;20025;-63
2022/06/11 07:49:21;;;;;;;25.40;4.25;;;;;;;;;;5056140;28;20025;-63
2022/06/11 07:51:47;;;;;;;17.17;3.83;;;;;;;;;;5060173;28;20017;-63
2022/06/11 07:54:13;;;;;;;27.05;4.32;;;;;;;;;;5054104;28;20387;-64
2022/06/11 07:56:39;;;;;;;27.50;4.70;;;;;;;;;;5060850;28;20055;-64
2022/06/11 07:59:07;;;;;;;27.90;3.92;;;;;;;;;;5065863;28;20072;-63
2022/06/11 08:01:33;;;;;;;29.48;4.53;;;;;;;;;;5053343;28;20032;-64
2022/06/11 08:03:59;;;;;;;23.63;5.63;;;;;;;;;;5055033;28;20071;-63
2022/06/11 08:06:25;;;;;;;16.05;4.28;;;;;;;;;;5060502;28;20025;-64
2022/06/11 08:08:51;;;;;;;14.80;3.83;;;;;;;;;;5066195;28;20028;-64
2022/06/11 08:11:18;;;;;;;19.58;4.28;;;;;;;;;;5064453;28;20025;-63
2022/06/11 08:13:46;;;;;;;19.95;3.15;;;;;;;;;;5066748;28;20021;-63
2022/06/11 08:16:12;;;;;;;20.83;3.88;;;;;;;;;;5060428;28;20044;-63
2022/06/11 08:18:39;;;;;;;24.60;4.18;;;;;;;;;;5065335;28;20024;-64
2022/06/11 08:21:05;;;;;;;19.73;3.35;;;;;;;;;;5059890;28;20029;-63
2022/06/11 08:23:32;;;;;;;23.73;3.03;;;;;;;;;;5065490;28;20025;-63
2022/06/11 08:25:58;;;;;;;19.90;3.40;;;;;;;;;;5062626;28;20095;-63
2022/06/11 08:28:24;;;;;;;15.40;2.72;;;;;;;;;;5067305;28;20108;-64
2022/06/11 08:30:51;;;;;;;22.75;4.05;;;;;;;;;;5065939;28;20051;-64
2022/06/11 08:33:17;;;;;;;19.58;3.60;;;;;;;;;;5059496;28;20036;-64
2022/06/11 08:35:44;;;;;;;16.40;3.25;;;;;;;;;;5061464;28;20140;-63
2022/06/11 08:38:10;;;;;;;20.38;4.38;;;;;;;;;;5056258;28;20511;-64
2022/06/11 08:40:39;;;;;;;13.45;3.35;;;;;;;;;;5063551;28;20024;-64
2022/06/11 08:43:08;;;;;;;19.85;3.53;;;;;;;;;;5066550;28;20052;-64
2022/06/11 08:45:39;;;;;;;20.80;3.15;;;;;;;;;;5063911;28;20024;-64
2022/06/11 08:48:13;;;;;;;28.35;4.25;;;;;;;;;;5058103;28;20083;-64
2022/06/11 08:50:43;;;;;;;15.45;3.83;;;;;;;;;;5058343;28;20036;-64
2022/06/11 08:53:10;;;;;;;19.60;3.33;;;;;;;;;;5055420;28;20482;-64
2022/06/11 08:55:37;;;;;;;18.63;3.20;;;;;;;;;;5060001;28;20439;-64
2022/06/11 08:58:03;;;;;;;15.95;3.67;;;;;;;;;;5063346;28;20049;-64
2022/06/11 09:00:36;;;;;;;16.33;2.92;;;;;;;;;;5067212;28;20139;-64
2022/06/11 09:03:02;;;;;;;;;;;;;;;;;;5055682;28;20025;-64
2022/06/11 09:05:47;;;;;;;19.45;3.75;;;;;;;;;;5067644;28;19915;-64
2022/06/11 09:08:16;;;;;;;24.30;3.42;;;;;;;;;;5057932;28;20066;-64
2022/06/11 09:10:42;;;;;;;14.52;3.45;;;;;;;;;;5055458;28;20044;-64
2022/06/11 09:13:11;;;;;;;13.85;2.72;;;;;;;;;;5055889;28;20043;-64
2022/06/11 09:15:52;;;;;;;14.40;3.28;;;;;;;;;;5056070;28;20052;-64
2022/06/11 09:18:24;;;;;;;21.42;3.67;;;;;;;;;;5054745;28;20029;-64
2022/06/11 09:20:53;;;;;;;13.25;2.40;;;;;;;;;;5063424;28;20042;-64
2022/06/11 09:23:40;;;;;;;17.20;2.63;;;;;;;;;;5059847;28;20043;-64
2022/06/11 09:26:25;;;;;;;17.95;2.70;;;;;;;;;;5057273;28;20032;-64
2022/06/11 09:29:20;;;;;;;12.93;2.63;;;;;;;;;;5061510;28;20032;-64
2022/06/11 09:32:19;;;;;;;14.15;2.63;;;;;;;;;;5018324;28;20648;-64
2022/06/11 09:34:52;;;;;;;16.50;2.80;;;;;;;;;;4940355;29;20043;-64
2022/06/11 09:37:24;;;;;;;15.32;3.75;;;;;;;;;;4940118;29;20135;-64
2022/06/11 09:39:50;;;;;;;16.67;3.10;;;;;;;;;;4943053;29;20031;-64
2022/06/11 09:42:35;;;;;;;20.02;4.40;;;;;;;;;;4947350;29;20094;-64
2022/06/11 09:45:17;;;;;;;17.52;3.15;;;;;;;;;;4937136;29;20106;-64
2022/06/11 09:47:43;;;;;;;12.73;2.92;;;;;;;;;;4938226;29;20063;-64
2022/06/11 09:50:23;;;;;;;25.13;3.92;;;;;;;;;;4942975;29;20146;-64
2022/06/11 09:52:52;;;;;;;11.27;2.67;;;;;;;;;;4938806;28;20114;-64
2022/06/11 09:55:18;;;;;;;6.53;2.10;;;;;;;;;;4941935;29;20106;-64
2022/06/11 09:57:47;;;;;;;13.15;2.80;;;;;;;;;;4942240;29;20114;-64
2022/06/11 10:00:28;;;;;;;11.32;2.42;;;;;;;;;;4940992;29;20041;-64
2022/06/11 10:05:30;;;;;;;19.33;3.00;;;;;;;;;;4946942;29;20032;-64
2022/06/11 10:08:02;;;;;;;14.98;2.60;;;;;;;;;;4968441;28;20519;-64
2022/06/11 10:10:31;;;;;;;13.03;2.97;;;;;;;;;;5032845;28;20186;-64
2022/06/11 10:12:59;;;;;;;13.52;2.97;;;;;;;;;;5054005;28;20267;-64
2022/06/11 10:15:28;;;;;;;17.55;3.30;;;;;;;;;;5066483;28;20025;-64
2022/06/11 10:17:54;;;;;;;14.57;2.75;;;;;;;;;;5057031;28;20411;-64
2022/06/11 10:20:29;;;;;;;13.52;2.58;;;;;;;;;;5065612;28;20013;-65
2022/06/11 10:22:55;;;;;;;15.05;3.40;;;;;;;;;;5063915;28;20040;-64
2022/06/11 10:25:30;;;;;;;14.88;3.28;;;;;;;;;;5056481;28;20028;-64
2022/06/11 10:28:00;;;;;;;16.23;2.45;;;;;;;;;;5059067;28;20071;-64
2022/06/11 10:30:34;;;;;;;15.32;3.05;;;;;;;;;;5057346;28;20029;-64
2022/06/11 10:33:02;;;;;;;12.50;3.00;;;;;;;;;;5058627;28;20449;-64
2022/06/11 10:35:36;;;;;;;18.50;2.45;;;;;;;;;;5059960;28;20028;-64
2022/06/11 10:38:12;;;;;;;16.42;3.38;;;;;;;;;;5056658;28;20032;-64
2022/06/11 10:40:40;;;;;;;20.70;3.15;;;;;;;;;;5060442;28;20031;-64
2022/06/11 10:43:16;;;;;;;11.60;2.58;;;;;;;;;;5057358;28;20035;-64
2022/06/11 10:45:42;;;;;;;11.40;3.00;;;;;;;;;;5054121;28;20024;-64
2022/06/11 10:48:15;;;;;;;17.77;3.40;;;;;;;;;;5056039;28;20029;-64
2022/06/11 10:50:41;;;;;;;;;;;;;;;;;;5055836;28;20082;-64
2022/06/11 10:53:10;;;;;;;18.80;3.30;;;;;;;;;;5072622;28;19912;-64
2022/06/11 10:55:41;;;;;;;12.25;1.77;;;;;;;;;;5062735;28;20503;-64
2022/06/11 10:58:23;;;;;;;12.68;2.50;;;;;;;;;;5060337;28;20078;-64
2022/06/11 11:00:54;;;;;;;18.98;2.50;;;;;;;;;;5065187;28;20377;-64
2022/06/11 11:03:39;;;;;;;13.80;2.25;;;;;;;;;;5051291;28;20029;-64
2022/06/11 11:06:08;;;;;;;12.48;3.10;;;;;;;;;;5062217;28;20105;-64
2022/06/11 11:08:35;;;;;;;12.10;2.63;;;;;;;;;;5055823;28;20021;-64
2022/06/11 11:11:02;;;;;;;16.13;2.78;;;;;;;;;;5061462;28;20020;-64
2022/06/11 11:13:32;;;;;;;12.95;2.58;;;;;;;;;;5052726;28;20028;-65
2022/06/11 11:16:01;;;;;;;15.90;2.70;;;;;;;;;;5057974;28;20033;-65
2022/06/11 11:18:32;;;;;;;12.18;2.38;;;;;;;;;;5064468;28;20033;-64
2022/06/11 11:20:59;;;;;;;19.95;3.30;;;;;;;;;;5061080;28;20028;-64
2022/06/11 11:23:39;;;;;;;19.13;3.50;;;;;;;;;;5052601;28;20414;-64
2022/06/11 11:26:07;;;;;;;15.50;3.65;;;;;;;;;;5057167;28;20060;-64
2022/06/11 11:28:38;;;;;;;12.27;2.83;;;;;;;;;;5063322;28;20035;-64
2022/06/11 11:31:07;;;;;;;10.73;2.33;;;;;;;;;;5062017;28;20043;-64
2022/06/11 11:33:35;;;;;;;15.30;2.83;;;;;;;;;;5062502;28;20491;-64
2022/06/11 11:36:21;;;;;;;21.50;3.50;;;;;;;;;;5054948;28;20028;-64
2022/06/11 11:39:16;;;;;;;15.23;3.95;;;;;;;;;;5070085;28;20082;-64
2022/06/11 11:42:04;;;;;;;13.60;2.85;;;;;;;;;;5059759;28;20036;-64
2022/06/11 11:44:35;;;;;;;21.75;3.05;;;;;;;;;;5055898;28;20036;-64
2022/06/11 11:47:02;;;;;;;15.10;2.35;;;;;;;;;;5054648;28;20033;-64
2022/06/11 11:49:30;;;;;;;13.25;2.60;;;;;;;;;;5051270;28;20566;-64
2022/06/11 11:52:02;;;;;;;22.40;2.92;;;;;;;;;;5052439;28;20413;-64
2022/06/11 11:54:29;;;;;;;18.42;3.08;;;;;;;;;;5063040;28;20024;-64
2022/06/11 11:56:57;;;;;;;16.25;2.97;;;;;;;;;;5060879;28;20028;-64
2022/06/11 11:59:42;;;;;;;13.00;2.90;;;;;;;;;;5054774;28;20033;-64
2022/06/11 12:02:24;;;;;;;17.70;2.75;;;;;;;;;;5055886;28;20115;-64
2022/06/11 12:04:52;;;;;;;15.77;2.45;;;;;;;;;;5061146;28;20021;-64
2022/06/11 12:07:22;;;;;;;12.23;2.70;;;;;;;;;;5057507;28;20020;-64
2022/06/11 12:09:52;;;;;;;18.13;3.03;;;;;;;;;;5060000;28;20055;-64
2022/06/11 12:12:21;;;;;;;13.95;2.45;;;;;;;;;;5065936;28;20020;-64
2022/06/11 12:14:49;;;;;;;16.80;3.25;;;;;;;;;;5061067;28;20392;-64
2022/06/11 12:17:34;;;;;;;12.25;3.05;;;;;;;;;;5057954;28;20060;-64
2022/06/11 12:20:02;;;;;;;10.77;2.38;;;;;;;;;;5067508;28;20032;-64
2022/06/11 12:22:32;;;;;;;16.15;3.05;;;;;;;;;;5058327;28;20025;-64
2022/06/11 12:24:59;;;;;;;9.88;2.22;;;;;;;;;;5062539;28;20028;-64
2022/06/11 12:27:39;;;;;;;12.93;2.20;;;;;;;;;;5071100;28;20410;-64
2022/06/11 12:30:10;;;;;;;11.32;1.63;;;;;;;;;;5054578;28;20020;-64
2022/06/11 12:32:36;;;;;;;9.55;2.10;;;;;;;;;;5063259;28;20027;-64
2022/06/11 12:35:13;;;;;;;10.80;2.20;;;;;;;;;;5059934;28;20067;-64
2022/06/11 12:37:44;;;;;;;13.80;2.65;;;;;;;;;;5053808;28;20112;-64
2022/06/11 12:40:29;;;;;;;17.98;2.92;;;;;;;;;;5066804;28;20025;-64
2022/06/11 12:43:10;;;;;;;9.73;1.98;;;;;;;;;;5060972;28;20115;-64
2022/06/11 12:45:55;;;;;;;13.43;2.40;;;;;;;;;;5055205;28;20043;-64
2022/06/11 12:48:24;;;;;;;18.95;2.80;;;;;;;;;;5059035;28;20119;-64
2022/06/11 12:51:03;;;;;;;20.35;2.75;;;;;;;;;;5064553;28;20374;-64
2022/06/11 12:53:29;;;;;;;11.20;2.70;;;;;;;;;;5067355;28;20020;-64
2022/06/11 12:56:04;;;;;;;14.43;3.22;;;;;;;;;;5057591;28;20056;-64
2022/06/11 12:58:33;;;;;;;17.83;2.85;;;;;;;;;;5065280;28;20044;-64
2022/06/11 13:01:29;;;;;;;13.10;2.95;;;;;;;;;;5067595;28;20033;-64
2022/06/11 13:04:04;;;;;;;12.23;2.58;;;;;;;;;;5024072;28;20053;-64
2022/06/11 13:06:30;;;;;;;19.35;3.17;;;;;;;;;;5022083;28;20025;-64
2022/06/11 13:08:56;;;;;;;19.35;2.78;;;;;;;;;;5021833;28;20133;-64
2022/06/11 13:11:51;;;;;;;12.85;2.80;;;;;;;;;;5025632;28;20049;-64
2022/06/11 13:14:43;;;;;;;14.70;3.03;;;;;;;;;;5004334;28;20041;-64
2022/06/11 13:17:09;;;;;;;14.82;2.42;;;;;;;;;;5018304;28;20460;-64
2022/06/11 13:19:41;;;;;;;17.17;3.03;;;;;;;;;;5020837;28;20038;-64
2022/06/11 13:22:10;;;;;;;19.85;2.95;;;;;;;;;;5015279;28;20152;-64
2022/06/11 13:24:48;;;;;;;16.33;4.03;;;;;;;;;;5025556;28;20485;-64
2022/06/11 13:27:14;;;;;;;18.90;3.28;;;;;;;;;;5012105;28;20048;-64
2022/06/11 13:30:13;;;;;;;13.65;2.83;;;;;;;;;;5021652;28;20029;-64
2022/06/11 13:32:47;;;;;;;15.52;2.90;;;;;;;;;;4999559;28;20379;-64
2022/06/11 13:35:16;;;;;;;11.35;2.38;;;;;;;;;;5020049;28;20042;-64
2022/06/11 13:38:02;;;;;;;17.77;3.42;;;;;;;;;;5027072;28;20037;-64
2022/06/11 13:40:44;;;;;;;15.30;3.45;;;;;;;;;;4976159;28;20612;-64
2022/06/11 13:43:19;;;;;;;15.27;2.83;;;;;;;;;;5002035;28;20053;-64
2022/06/11 13:45:49;;;;;;;11.82;2.83;;;;;;;;;;4993238;28;20465;-65
2022/06/11 13:48:34;;;;;;;14.60;2.40;;;;;;;;;;5002301;28;20542;-65
2022/06/11 13:51:00;;;;;;;11.07;2.28;;;;;;;;;;4994834;28;20042;-64
2022/06/11 13:56:23;;;;;;;17.90;3.53;;;;;;;;;;5001951;28;20121;-65
2022/06/11 13:59:01;;;;;;;17.90;2.38;;;;;;;;;;5009071;28;20085;-65
2022/06/11 14:01:40;;;;;;;19.77;2.63;;;;;;;;;;4992253;28;20038;-64
2022/06/11 14:04:27;;;;;;;14.48;3.10;;;;;;;;;;5010118;28;20046;-65
2022/06/11 14:06:55;;;;;;;14.93;2.83;;;;;;;;;;5011277;28;20044;-64
2022/06/11 14:12:27;;;;;;;16.70;3.38;;;;;;;;;;5003704;28;20099;-65
2022/06/11 14:15:16;;;;;;;16.80;2.95;;;;;;;;;;4991204;28;20050;-65
2022/06/11 14:17:44;;;;;;;17.67;3.00;;;;;;;;;;5020698;28;20049;-65
2022/06/11 14:20:22;;;;;;;15.60;3.22;;;;;;;;;;5061054;28;20052;-65
2022/06/11 14:22:49;;;;;;;20.38;2.65;;;;;;;;;;5067070;28;20060;-65
2022/06/11 14:25:35;;;;;;;13.10;2.67;;;;;;;;;;5054131;28;20052;-65
2022/06/11 14:28:14;;;;;;;13.73;3.42;;;;;;;;;;5061551;28;20116;-65
2022/06/11 14:30:41;;;;;;;17.58;2.58;;;;;;;;;;5065280;28;20122;-65
2022/06/11 14:33:13;;;;;;;15.32;2.95;;;;;;;;;;5063996;28;20025;-65
2022/06/11 14:35:49;;;;;;;15.25;3.03;;;;;;;;;;5058253;28;20040;-65
2022/06/11 14:38:35;;;;;;;20.52;3.78;;;;;;;;;;5057106;28;20029;-65
2022/06/11 14:41:07;;;;;;;15.23;3.50;;;;;;;;;;5050579;28;20401;-65
2022/06/11 14:43:57;;;;;;;13.98;2.97;;;;;;;;;;5063442;28;20028;-65
2022/06/11 14:46:42;;;;;;;19.40;3.00;;;;;;;;;;5052300;28;20048;-65
2022/06/11 14:49:26;;;;;;;21.70;4.53;;;;;;;;;;5055111;28;20059;-65
2022/06/11 14:52:04;;;;;;;22.08;3.38;;;;;;;;;;5053297;28;20036;-65
2022/06/11 14:54:56;;;;;;;18.83;2.78;;;;;;;;;;5051624;28;20128;-66
2022/06/11 14:57:34;;;;;;;17.33;3.17;;;;;;;;;;5054333;28;20067;-65
2022/06/11 15:00:00;;;;;;;18.05;3.50;;;;;;;;;;5057726;28;20033;-66
2022/06/11 15:02:38;;;;;;;17.20;3.42;;;;;;;;;;5061353;28;20033;-65
2022/06/11 15:05:22;;;;;;;14.55;2.50;;;;;;;;;;5067464;28;20058;-65